sensor_id;sensor_type;location;lat;lon;timestamp;P1;durP1;ratioP1;P2;durP2;ratioP2
20397;SDS011;10358;49.590;11.030;2022-11-02T00:01:27;11.23;;;4.50;;
20397;SDS011;10358;49.590;11.030;2022-11-02T00:03:57;7.70;;;4.40;;
20397;SDS011;10358;49.590;11.030;2022-11-02T00:06:22;9.80;;;4.33;;
20397;SDS011;10358;49.590;11.030;2022-11-02T00:08:48;9.43;;;4.57;;
20397;SDS011;10358;49.590;11.030;2022-11-02T00:11:13;8.13;;;4.93;;
20397;SDS011;10358;49.590;11.030;2022-11-02T00:13:39;11.27;;;6.30;;
20397;SDS011;10358;49.590;11.030;2022-11-02T00:16:06;10.23;;;5.47;;
20397;SDS011;10358;49.590;11.030;2022-11-02T00:18:35;13.23;;;5.87;;
20397;SDS011;10358;49.590;11.030;2022-11-02T00:21:01;11.57;;;5.77;;
20397;SDS011;10358;49.590;11.030;2022-11-02T00:23:28;9.30;;;5.90;;
20397;SDS011;10358;49.590;11.030;2022-11-02T00:25:54;11.13;;;5.90;;
20397;SDS011;10358;49.590;11.030;2022-11-02T00:28:20;11.37;;;6.33;;
20397;SDS011;10358;49.590;11.030;2022-11-02T00:30:46;9.13;;;6.00;;
20397;SDS011;10358;49.590;11.030;2022-11-02T00:33:12;10.70;;;6.23;;
20397;SDS011;10358;49.590;11.030;2022-11-02T00:35:38;11.80;;;6.20;;
20397;SDS011;10358;49.590;11.030;2022-11-02T00:38:04;11.17;;;5.63;;
20397;SDS011;10358;49.590;11.030;2022-11-02T00:40:30;9.07;;;5.30;;
20397;SDS011;10358;49.590;11.030;2022-11-02T00:42:55;11.37;;;5.47;;
20397;SDS011;10358;49.590;11.030;2022-11-02T00:45:21;14.53;;;5.33;;
20397;SDS011;10358;49.590;11.030;2022-11-02T00:47:47;9.87;;;5.03;;
20397;SDS011;10358;49.590;11.030;2022-11-02T00:50:14;12.50;;;5.10;;
20397;SDS011;10358;49.590;11.030;2022-11-02T00:52:40;11.63;;;6.10;;
20397;SDS011;10358;49.590;11.030;2022-11-02T00:55:06;11.13;;;5.50;;
20397;SDS011;10358;49.590;11.030;2022-11-02T00:57:33;11.17;;;5.53;;
20397;SDS011;10358;49.590;11.030;2022-11-02T00:59:59;12.33;;;5.70;;
20397;SDS011;10358;49.590;11.030;2022-11-02T01:02:25;8.67;;;5.70;;
20397;SDS011;10358;49.590;11.030;2022-11-02T01:04:51;10.33;;;5.40;;
20397;SDS011;10358;49.590;11.030;2022-11-02T01:07:16;11.50;;;5.73;;
20397;SDS011;10358;49.590;11.030;2022-11-02T01:09:42;13.40;;;5.60;;
20397;SDS011;10358;49.590;11.030;2022-11-02T01:12:08;13.43;;;6.70;;
20397;SDS011;10358;49.590;11.030;2022-11-02T01:14:33;13.80;;;5.80;;
20397;SDS011;10358;49.590;11.030;2022-11-02T01:16:59;11.50;;;6.07;;
20397;SDS011;10358;49.590;11.030;2022-11-02T01:19:24;12.53;;;5.43;;
20397;SDS011;10358;49.590;11.030;2022-11-02T01:21:50;11.60;;;5.47;;
20397;SDS011;10358;49.590;11.030;2022-11-02T01:24:16;15.63;;;5.40;;
20397;SDS011;10358;49.590;11.030;2022-11-02T01:26:41;11.07;;;5.43;;
20397;SDS011;10358;49.590;11.030;2022-11-02T01:29:07;11.33;;;6.63;;
20397;SDS011;10358;49.590;11.030;2022-11-02T01:31:32;12.03;;;6.17;;
20397;SDS011;10358;49.590;11.030;2022-11-02T01:33:58;13.37;;;6.13;;
20397;SDS011;10358;49.590;11.030;2022-11-02T01:36:24;12.20;;;5.87;;
20397;SDS011;10358;49.590;11.030;2022-11-02T01:38:50;11.03;;;6.07;;
20397;SDS011;10358;49.590;11.030;2022-11-02T01:41:16;15.03;;;6.87;;
20397;SDS011;10358;49.590;11.030;2022-11-02T01:43:45;13.77;;;6.37;;
20397;SDS011;10358;49.590;11.030;2022-11-02T01:48:48;10.80;;;6.40;;
20397;SDS011;10358;49.590;11.030;2022-11-02T01:51:26;13.00;;;6.27;;
20397;SDS011;10358;49.590;11.030;2022-11-02T01:54:19;15.07;;;6.40;;
20397;SDS011;10358;49.590;11.030;2022-11-02T01:56:48;13.07;;;6.23;;
20397;SDS011;10358;49.590;11.030;2022-11-02T01:59:18;14.33;;;6.83;;
20397;SDS011;10358;49.590;11.030;2022-11-02T02:01:47;11.90;;;6.40;;
20397;SDS011;10358;49.590;11.030;2022-11-02T02:04:13;14.03;;;6.37;;
20397;SDS011;10358;49.590;11.030;2022-11-02T02:06:39;14.17;;;6.67;;
20397;SDS011;10358;49.590;11.030;2022-11-02T02:09:06;14.07;;;6.80;;
20397;SDS011;10358;49.590;11.030;2022-11-02T02:11:34;12.57;;;6.80;;
20397;SDS011;10358;49.590;11.030;2022-11-02T02:14:11;11.93;;;6.50;;
20397;SDS011;10358;49.590;11.030;2022-11-02T02:30:23;13.20;;;6.90;;
20397;SDS011;10358;49.590;11.030;2022-11-02T02:35:38;13.23;;;6.53;;
20397;SDS011;10358;49.590;11.030;2022-11-02T02:38:29;11.43;;;6.73;;
20397;SDS011;10358;49.590;11.030;2022-11-02T02:41:45;12.10;;;6.50;;
20397;SDS011;10358;49.590;11.030;2022-11-02T02:43:49;10.33;;;6.27;;
20397;SDS011;10358;49.590;11.030;2022-11-02T02:46:21;11.97;;;6.50;;
20397;SDS011;10358;49.590;11.030;2022-11-02T02:49:04;14.13;;;6.80;;
20397;SDS011;10358;49.590;11.030;2022-11-02T02:51:35;11.43;;;6.60;;
20397;SDS011;10358;49.590;11.030;2022-11-02T02:54:02;12.13;;;6.67;;
20397;SDS011;10358;49.590;11.030;2022-11-02T02:56:33;14.30;;;7.30;;
20397;SDS011;10358;49.590;11.030;2022-11-02T02:59:06;12.60;;;6.80;;
20397;SDS011;10358;49.590;11.030;2022-11-02T03:01:38;18.53;;;7.00;;
20397;SDS011;10358;49.590;11.030;2022-11-02T03:04:09;11.60;;;7.03;;
20397;SDS011;10358;49.590;11.030;2022-11-02T03:06:36;16.73;;;7.23;;
20397;SDS011;10358;49.590;11.030;2022-11-02T03:09:04;17.73;;;7.33;;
20397;SDS011;10358;49.590;11.030;2022-11-02T03:12:01;12.30;;;7.20;;
20397;SDS011;10358;49.590;11.030;2022-11-02T03:14:35;11.80;;;6.90;;
20397;SDS011;10358;49.590;11.030;2022-11-02T03:17:26;10.50;;;6.77;;
20397;SDS011;10358;49.590;11.030;2022-11-02T03:25:23;11.17;;;6.80;;
20397;SDS011;10358;49.590;11.030;2022-11-02T03:28:06;14.13;;;6.43;;
20397;SDS011;10358;49.590;11.030;2022-11-02T03:30:47;13.87;;;7.30;;
20397;SDS011;10358;49.590;11.030;2022-11-02T03:33:21;14.67;;;7.57;;
20397;SDS011;10358;49.590;11.030;2022-11-02T03:38:34;12.77;;;6.60;;
20397;SDS011;10358;49.590;11.030;2022-11-02T03:41:36;12.47;;;7.00;;
20397;SDS011;10358;49.590;11.030;2022-11-02T03:44:06;11.43;;;6.70;;
20397;SDS011;10358;49.590;11.030;2022-11-02T03:46:35;13.90;;;6.63;;
20397;SDS011;10358;49.590;11.030;2022-11-02T03:49:04;13.00;;;6.63;;
20397;SDS011;10358;49.590;11.030;2022-11-02T03:51:31;13.53;;;6.27;;
20397;SDS011;10358;49.590;11.030;2022-11-02T03:54:01;9.37;;;6.00;;
20397;SDS011;10358;49.590;11.030;2022-11-02T03:56:45;12.73;;;7.20;;
20397;SDS011;10358;49.590;11.030;2022-11-02T03:59:14;14.87;;;6.90;;
20397;SDS011;10358;49.590;11.030;2022-11-02T04:01:43;14.20;;;7.10;;
20397;SDS011;10358;49.590;11.030;2022-11-02T04:04:11;16.63;;;7.93;;
20397;SDS011;10358;49.590;11.030;2022-11-02T04:06:37;12.10;;;7.83;;
20397;SDS011;10358;49.590;11.030;2022-11-02T04:09:03;10.73;;;6.27;;
20397;SDS011;10358;49.590;11.030;2022-11-02T04:11:29;14.27;;;5.80;;
20397;SDS011;10358;49.590;11.030;2022-11-02T04:14:14;8.87;;;5.20;;
20397;SDS011;10358;49.590;11.030;2022-11-02T04:16:58;13.43;;;5.53;;
20397;SDS011;10358;49.590;11.030;2022-11-02T04:19:43;12.50;;;5.17;;
20397;SDS011;10358;49.590;11.030;2022-11-02T04:22:08;6.50;;;4.77;;
20397;SDS011;10358;49.590;11.030;2022-11-02T04:25:13;11.43;;;5.40;;
20397;SDS011;10358;49.590;11.030;2022-11-02T04:27:39;11.70;;;5.33;;
20397;SDS011;10358;49.590;11.030;2022-11-02T04:30:06;12.13;;;5.60;;
20397;SDS011;10358;49.590;11.030;2022-11-02T04:32:36;10.13;;;5.43;;
20397;SDS011;10358;49.590;11.030;2022-11-02T04:35:32;8.47;;;5.57;;
20397;SDS011;10358;49.590;11.030;2022-11-02T04:37:59;8.90;;;5.30;;
20397;SDS011;10358;49.590;11.030;2022-11-02T04:40:43;8.07;;;5.17;;
20397;SDS011;10358;49.590;11.030;2022-11-02T04:43:09;10.97;;;5.50;;
20397;SDS011;10358;49.590;11.030;2022-11-02T04:45:35;12.03;;;5.57;;
20397;SDS011;10358;49.590;11.030;2022-11-02T04:48:01;12.00;;;6.30;;
20397;SDS011;10358;49.590;11.030;2022-11-02T04:50:29;16.33;;;8.43;;
20397;SDS011;10358;49.590;11.030;2022-11-02T04:52:55;14.47;;;7.33;;
20397;SDS011;10358;49.590;11.030;2022-11-02T04:55:22;9.17;;;5.53;;
20397;SDS011;10358;49.590;11.030;2022-11-02T04:57:47;10.90;;;5.37;;
20397;SDS011;10358;49.590;11.030;2022-11-02T05:00:13;8.40;;;5.10;;
20397;SDS011;10358;49.590;11.030;2022-11-02T05:02:39;12.30;;;5.53;;
20397;SDS011;10358;49.590;11.030;2022-11-02T05:05:05;13.90;;;5.33;;
20397;SDS011;10358;49.590;11.030;2022-11-02T05:07:31;11.50;;;5.53;;
20397;SDS011;10358;49.590;11.030;2022-11-02T05:09:56;10.37;;;5.10;;
20397;SDS011;10358;49.590;11.030;2022-11-02T05:12:22;12.73;;;5.20;;
20397;SDS011;10358;49.590;11.030;2022-11-02T05:14:47;11.67;;;5.23;;
20397;SDS011;10358;49.590;11.030;2022-11-02T05:17:13;14.07;;;4.97;;
20397;SDS011;10358;49.590;11.030;2022-11-02T05:19:40;14.47;;;6.73;;
20397;SDS011;10358;49.590;11.030;2022-11-02T05:22:06;9.50;;;5.53;;
20397;SDS011;10358;49.590;11.030;2022-11-02T05:24:31;9.97;;;5.33;;
20397;SDS011;10358;49.590;11.030;2022-11-02T05:26:57;11.73;;;5.63;;
20397;SDS011;10358;49.590;11.030;2022-11-02T05:29:24;10.57;;;5.70;;
20397;SDS011;10358;49.590;11.030;2022-11-02T05:31:50;11.27;;;6.10;;
20397;SDS011;10358;49.590;11.030;2022-11-02T05:34:15;10.63;;;6.40;;
20397;SDS011;10358;49.590;11.030;2022-11-02T05:36:41;13.63;;;5.30;;
20397;SDS011;10358;49.590;11.030;2022-11-02T05:39:07;15.40;;;6.23;;
20397;SDS011;10358;49.590;11.030;2022-11-02T05:41:32;10.73;;;6.17;;
20397;SDS011;10358;49.590;11.030;2022-11-02T05:43:58;15.83;;;6.13;;
20397;SDS011;10358;49.590;11.030;2022-11-02T05:46:24;10.23;;;5.93;;
20397;SDS011;10358;49.590;11.030;2022-11-02T05:48:49;15.30;;;5.90;;
20397;SDS011;10358;49.590;11.030;2022-11-02T05:51:15;9.20;;;5.70;;
20397;SDS011;10358;49.590;11.030;2022-11-02T05:53:41;10.10;;;5.80;;
20397;SDS011;10358;49.590;11.030;2022-11-02T05:56:08;11.90;;;6.20;;
20397;SDS011;10358;49.590;11.030;2022-11-02T05:58:35;11.77;;;5.63;;
20397;SDS011;10358;49.590;11.030;2022-11-02T06:01:01;13.27;;;5.80;;
20397;SDS011;10358;49.590;11.030;2022-11-02T06:03:29;13.30;;;5.73;;
20397;SDS011;10358;49.590;11.030;2022-11-02T06:05:56;11.63;;;5.57;;
20397;SDS011;10358;49.590;11.030;2022-11-02T06:08:25;13.37;;;5.53;;
20397;SDS011;10358;49.590;11.030;2022-11-02T06:10:52;17.07;;;6.23;;
20397;SDS011;10358;49.590;11.030;2022-11-02T06:13:18;10.93;;;5.60;;
20397;SDS011;10358;49.590;11.030;2022-11-02T06:15:43;14.73;;;5.70;;
20397;SDS011;10358;49.590;11.030;2022-11-02T06:18:09;12.80;;;5.63;;
20397;SDS011;10358;49.590;11.030;2022-11-02T06:20:35;10.07;;;5.20;;
20397;SDS011;10358;49.590;11.030;2022-11-02T06:23:00;12.83;;;5.77;;
20397;SDS011;10358;49.590;11.030;2022-11-02T06:25:26;8.40;;;4.83;;
20397;SDS011;10358;49.590;11.030;2022-11-02T06:27:52;14.50;;;5.60;;
20397;SDS011;10358;49.590;11.030;2022-11-02T06:30:20;10.73;;;4.70;;
20397;SDS011;10358;49.590;11.030;2022-11-02T06:32:50;14.30;;;5.43;;
20397;SDS011;10358;49.590;11.030;2022-11-02T06:35:17;11.40;;;6.03;;
20397;SDS011;10358;49.590;11.030;2022-11-02T06:37:43;13.30;;;5.97;;
20397;SDS011;10358;49.590;11.030;2022-11-02T06:40:10;13.40;;;6.07;;
20397;SDS011;10358;49.590;11.030;2022-11-02T06:42:36;15.63;;;5.80;;
20397;SDS011;10358;49.590;11.030;2022-11-02T06:45:02;11.97;;;5.97;;
20397;SDS011;10358;49.590;11.030;2022-11-02T06:47:29;11.27;;;5.80;;
20397;SDS011;10358;49.590;11.030;2022-11-02T06:49:56;11.60;;;5.93;;
20397;SDS011;10358;49.590;11.030;2022-11-02T06:52:22;9.37;;;5.87;;
20397;SDS011;10358;49.590;11.030;2022-11-02T06:54:47;14.43;;;5.73;;
20397;SDS011;10358;49.590;11.030;2022-11-02T06:57:13;13.63;;;5.50;;
20397;SDS011;10358;49.590;11.030;2022-11-02T06:59:38;11.40;;;5.70;;
20397;SDS011;10358;49.590;11.030;2022-11-02T07:02:04;13.53;;;5.70;;
20397;SDS011;10358;49.590;11.030;2022-11-02T07:04:29;11.37;;;6.10;;
20397;SDS011;10358;49.590;11.030;2022-11-02T07:06:55;11.07;;;5.97;;
20397;SDS011;10358;49.590;11.030;2022-11-02T07:09:20;14.67;;;5.77;;
20397;SDS011;10358;49.590;11.030;2022-11-02T07:11:46;13.33;;;5.63;;
20397;SDS011;10358;49.590;11.030;2022-11-02T07:14:11;14.30;;;6.07;;
20397;SDS011;10358;49.590;11.030;2022-11-02T07:16:37;11.20;;;5.70;;
20397;SDS011;10358;49.590;11.030;2022-11-02T07:19:02;12.67;;;5.70;;
20397;SDS011;10358;49.590;11.030;2022-11-02T07:21:28;11.13;;;5.80;;
20397;SDS011;10358;49.590;11.030;2022-11-02T07:23:54;11.87;;;5.07;;
20397;SDS011;10358;49.590;11.030;2022-11-02T07:26:19;13.13;;;5.70;;
20397;SDS011;10358;49.590;11.030;2022-11-02T07:28:45;11.87;;;5.40;;
20397;SDS011;10358;49.590;11.030;2022-11-02T07:31:11;15.87;;;5.30;;
20397;SDS011;10358;49.590;11.030;2022-11-02T07:33:36;12.50;;;5.43;;
20397;SDS011;10358;49.590;11.030;2022-11-02T07:36:02;11.60;;;4.97;;
20397;SDS011;10358;49.590;11.030;2022-11-02T07:38:29;12.60;;;5.10;;
20397;SDS011;10358;49.590;11.030;2022-11-02T07:40:54;10.50;;;4.30;;
20397;SDS011;10358;49.590;11.030;2022-11-02T07:43:20;8.23;;;4.80;;
20397;SDS011;10358;49.590;11.030;2022-11-02T07:45:45;11.57;;;4.47;;
20397;SDS011;10358;49.590;11.030;2022-11-02T07:48:11;10.77;;;4.47;;
20397;SDS011;10358;49.590;11.030;2022-11-02T07:50:37;13.40;;;4.20;;
20397;SDS011;10358;49.590;11.030;2022-11-02T07:53:02;11.43;;;4.30;;
20397;SDS011;10358;49.590;11.030;2022-11-02T07:55:28;9.70;;;3.83;;
20397;SDS011;10358;49.590;11.030;2022-11-02T07:57:58;9.10;;;4.00;;
20397;SDS011;10358;49.590;11.030;2022-11-02T08:00:26;14.13;;;4.03;;
20397;SDS011;10358;49.590;11.030;2022-11-02T08:02:57;7.30;;;3.57;;
20397;SDS011;10358;49.590;11.030;2022-11-02T08:05:24;12.23;;;4.27;;
20397;SDS011;10358;49.590;11.030;2022-11-02T08:10:23;6.50;;;3.83;;
20397;SDS011;10358;49.590;11.030;2022-11-02T08:12:49;9.60;;;3.87;;
20397;SDS011;10358;49.590;11.030;2022-11-02T08:15:14;8.83;;;3.90;;
20397;SDS011;10358;49.590;11.030;2022-11-02T08:17:40;13.43;;;3.60;;
20397;SDS011;10358;49.590;11.030;2022-11-02T08:20:05;9.67;;;3.00;;
20397;SDS011;10358;49.590;11.030;2022-11-02T08:22:35;9.00;;;3.00;;
20397;SDS011;10358;49.590;11.030;2022-11-02T08:25:01;8.93;;;3.47;;
20397;SDS011;10358;49.590;11.030;2022-11-02T08:27:27;5.10;;;2.90;;
20397;SDS011;10358;49.590;11.030;2022-11-02T08:29:52;7.37;;;3.27;;
20397;SDS011;10358;49.590;11.030;2022-11-02T08:32:18;7.83;;;3.10;;
20397;SDS011;10358;49.590;11.030;2022-11-02T08:34:43;14.07;;;3.90;;
20397;SDS011;10358;49.590;11.030;2022-11-02T08:37:09;6.00;;;3.27;;
20397;SDS011;10358;49.590;11.030;2022-11-02T08:39:34;13.77;;;3.73;;
20397;SDS011;10358;49.590;11.030;2022-11-02T08:42:00;8.60;;;3.00;;
20397;SDS011;10358;49.590;11.030;2022-11-02T08:44:26;6.83;;;2.43;;
20397;SDS011;10358;49.590;11.030;2022-11-02T08:46:51;9.73;;;2.53;;
20397;SDS011;10358;49.590;11.030;2022-11-02T08:49:18;7.10;;;2.70;;
20397;SDS011;10358;49.590;11.030;2022-11-02T08:51:45;10.27;;;2.47;;
20397;SDS011;10358;49.590;11.030;2022-11-02T08:54:11;9.43;;;2.40;;
20397;SDS011;10358;49.590;11.030;2022-11-02T08:56:36;11.70;;;2.60;;
20397;SDS011;10358;49.590;11.030;2022-11-02T08:59:02;8.70;;;2.60;;
20397;SDS011;10358;49.590;11.030;2022-11-02T09:01:27;14.50;;;2.63;;
20397;SDS011;10358;49.590;11.030;2022-11-02T09:03:53;11.53;;;2.60;;
20397;SDS011;10358;49.590;11.030;2022-11-02T09:06:19;9.50;;;2.40;;
20397;SDS011;10358;49.590;11.030;2022-11-02T09:08:44;12.03;;;2.40;;
20397;SDS011;10358;49.590;11.030;2022-11-02T09:11:10;10.00;;;2.20;;
20397;SDS011;10358;49.590;11.030;2022-11-02T09:13:36;11.70;;;2.10;;
20397;SDS011;10358;49.590;11.030;2022-11-02T09:16:02;11.30;;;2.20;;
20397;SDS011;10358;49.590;11.030;2022-11-02T09:18:28;12.83;;;3.20;;
20397;SDS011;10358;49.590;11.030;2022-11-02T09:20:53;10.60;;;1.70;;
20397;SDS011;10358;49.590;11.030;2022-11-02T09:23:20;11.07;;;2.20;;
20397;SDS011;10358;49.590;11.030;2022-11-02T09:25:46;8.40;;;2.00;;
20397;SDS011;10358;49.590;11.030;2022-11-02T09:28:13;10.93;;;1.67;;
20397;SDS011;10358;49.590;11.030;2022-11-02T09:30:39;13.23;;;2.30;;
20397;SDS011;10358;49.590;11.030;2022-11-02T09:33:05;4.67;;;1.53;;
20397;SDS011;10358;49.590;11.030;2022-11-02T09:35:33;5.93;;;1.80;;
20397;SDS011;10358;49.590;11.030;2022-11-02T09:37:59;12.10;;;1.87;;
20397;SDS011;10358;49.590;11.030;2022-11-02T09:40:26;12.30;;;1.90;;
20397;SDS011;10358;49.590;11.030;2022-11-02T09:45:28;6.53;;;1.70;;
20397;SDS011;10358;49.590;11.030;2022-11-02T09:48:20;8.03;;;1.90;;
20397;SDS011;10358;49.590;11.030;2022-11-02T09:50:47;7.50;;;2.00;;
20397;SDS011;10358;49.590;11.030;2022-11-02T09:53:21;9.80;;;2.03;;
20397;SDS011;10358;49.590;11.030;2022-11-02T09:55:52;9.90;;;1.67;;
20397;SDS011;10358;49.590;11.030;2022-11-02T09:58:22;10.07;;;2.30;;
20397;SDS011;10358;49.590;11.030;2022-11-02T10:00:55;13.20;;;1.97;;
20397;SDS011;10358;49.590;11.030;2022-11-02T10:03:31;9.43;;;1.93;;
20397;SDS011;10358;49.590;11.030;2022-11-02T10:11:17;5.10;;;1.70;;
20397;SDS011;10358;49.590;11.030;2022-11-02T10:14:14;7.47;;;1.83;;
20397;SDS011;10358;49.590;11.030;2022-11-02T10:16:56;11.97;;;2.10;;
20397;SDS011;10358;49.590;11.030;2022-11-02T10:19:43;6.80;;;1.70;;
20397;SDS011;10358;49.590;11.030;2022-11-02T10:22:16;8.63;;;1.80;;
20397;SDS011;10358;49.590;11.030;2022-11-02T10:24:42;12.37;;;2.30;;
20397;SDS011;10358;49.590;11.030;2022-11-02T10:27:27;9.60;;;1.90;;
20397;SDS011;10358;49.590;11.030;2022-11-02T10:30:06;9.15;;;1.75;;
20397;SDS011;10358;49.590;11.030;2022-11-02T10:32:39;14.67;;;2.10;;
20397;SDS011;10358;49.590;11.030;2022-11-02T10:35:30;7.53;;;1.50;;
20397;SDS011;10358;49.590;11.030;2022-11-02T10:43:42;12.38;;;2.10;;
20397;SDS011;10358;49.590;11.030;2022-11-02T10:51:38;12.37;;;1.93;;
20397;SDS011;10358;49.590;11.030;2022-11-02T10:54:07;9.83;;;2.13;;
20397;SDS011;10358;49.590;11.030;2022-11-02T10:56:38;8.27;;;1.83;;
20397;SDS011;10358;49.590;11.030;2022-11-02T11:01:37;9.27;;;2.10;;
20397;SDS011;10358;49.590;11.030;2022-11-02T11:04:31;13.13;;;2.10;;
20397;SDS011;10358;49.590;11.030;2022-11-02T11:07:02;9.57;;;2.17;;
20397;SDS011;10358;49.590;11.030;2022-11-02T11:09:47;11.03;;;1.87;;
20397;SDS011;10358;49.590;11.030;2022-11-02T11:12:19;14.30;;;2.00;;
20397;SDS011;10358;49.590;11.030;2022-11-02T11:14:51;9.82;;;2.10;;
20397;SDS011;10358;49.590;11.030;2022-11-02T11:17:31;8.18;;;2.38;;
20397;SDS011;10358;49.590;11.030;2022-11-02T11:19:59;8.63;;;2.17;;
20397;SDS011;10358;49.590;11.030;2022-11-02T11:30:27;6.00;;;1.60;;
20397;SDS011;10358;49.590;11.030;2022-11-02T11:32:53;10.50;;;1.90;;
20397;SDS011;10358;49.590;11.030;2022-11-02T11:35:19;6.77;;;2.17;;
20397;SDS011;10358;49.590;11.030;2022-11-02T11:38:06;5.40;;;1.83;;
20397;SDS011;10358;49.590;11.030;2022-11-02T11:40:38;11.67;;;1.97;;
20397;SDS011;10358;49.590;11.030;2022-11-02T11:43:09;9.40;;;1.97;;
20397;SDS011;10358;49.590;11.030;2022-11-02T11:45:39;9.43;;;1.93;;
20397;SDS011;10358;49.590;11.030;2022-11-02T11:50:55;6.37;;;1.83;;
20397;SDS011;10358;49.590;11.030;2022-11-02T11:53:22;10.47;;;2.10;;
20397;SDS011;10358;49.590;11.030;2022-11-02T11:55:49;10.37;;;2.13;;
20397;SDS011;10358;49.590;11.030;2022-11-02T11:58:20;7.77;;;1.93;;
20397;SDS011;10358;49.590;11.030;2022-11-02T12:01:36;11.43;;;2.10;;
20397;SDS011;10358;49.590;11.030;2022-11-02T12:09:20;14.60;;;2.30;;
20397;SDS011;10358;49.590;11.030;2022-11-02T12:11:52;9.33;;;2.10;;
20397;SDS011;10358;49.590;11.030;2022-11-02T12:23:19;7.63;;;1.90;;
20397;SDS011;10358;49.590;11.030;2022-11-02T12:32:01;8.17;;;1.97;;
20397;SDS011;10358;49.590;11.030;2022-11-02T12:43:39;8.13;;;1.90;;
20397;SDS011;10358;49.590;11.030;2022-11-02T12:47:12;13.13;;;2.10;;
20397;SDS011;10358;49.590;11.030;2022-11-02T12:49:26;10.03;;;2.00;;
20397;SDS011;10358;49.590;11.030;2022-11-02T12:54:52;8.07;;;1.60;;
20397;SDS011;10358;49.590;11.030;2022-11-02T12:57:21;10.20;;;1.83;;
20397;SDS011;10358;49.590;11.030;2022-11-02T12:59:51;7.72;;;1.58;;
20397;SDS011;10358;49.590;11.030;2022-11-02T13:02:20;7.73;;;1.77;;
20397;SDS011;10358;49.590;11.030;2022-11-02T13:04:53;6.80;;;1.47;;
20397;SDS011;10358;49.590;11.030;2022-11-02T13:07:35;7.35;;;1.65;;
20397;SDS011;10358;49.590;11.030;2022-11-02T13:13:00;7.37;;;1.73;;
20397;SDS011;10358;49.590;11.030;2022-11-02T13:15:28;10.55;;;1.73;;
20397;SDS011;10358;49.590;11.030;2022-11-02T13:17:59;8.27;;;1.63;;
20397;SDS011;10358;49.590;11.030;2022-11-02T13:20:49;10.00;;;1.83;;
20397;SDS011;10358;49.590;11.030;2022-11-02T13:23:30;8.90;;;1.50;;
20397;SDS011;10358;49.590;11.030;2022-11-02T13:29:04;5.18;;;1.50;;
20397;SDS011;10358;49.590;11.030;2022-11-02T13:31:49;9.07;;;1.58;;
20397;SDS011;10358;49.590;11.030;2022-11-02T13:34:18;9.10;;;1.67;;
20397;SDS011;10358;49.590;11.030;2022-11-02T13:36:55;10.48;;;1.77;;
20397;SDS011;10358;49.590;11.030;2022-11-02T13:39:31;10.75;;;1.67;;
20397;SDS011;10358;49.590;11.030;2022-11-02T13:44:43;6.68;;;1.65;;
20397;SDS011;10358;49.590;11.030;2022-11-02T13:47:22;8.07;;;2.00;;
20397;SDS011;10358;49.590;11.030;2022-11-02T13:50:08;9.00;;;1.75;;
20397;SDS011;10358;49.590;11.030;2022-11-02T13:52:48;8.35;;;1.80;;
20397;SDS011;10358;49.590;11.030;2022-11-02T13:55:24;8.05;;;1.48;;
20397;SDS011;10358;49.590;11.030;2022-11-02T13:58:02;7.07;;;1.63;;
20397;SDS011;10358;49.590;11.030;2022-11-02T14:00:30;6.90;;;1.80;;
20397;SDS011;10358;49.590;11.030;2022-11-02T14:05:53;9.65;;;1.50;;
20397;SDS011;10358;49.590;11.030;2022-11-02T14:08:27;5.35;;;1.60;;
20397;SDS011;10358;49.590;11.030;2022-11-02T14:11:01;6.70;;;1.73;;
20397;SDS011;10358;49.590;11.030;2022-11-02T14:22:28;10.15;;;1.88;;
20397;SDS011;10358;49.590;11.030;2022-11-02T14:46:20;8.27;;;1.70;;
20397;SDS011;10358;49.590;11.030;2022-11-02T14:49:14;9.00;;;1.83;;
20397;SDS011;10358;49.590;11.030;2022-11-02T14:51:43;7.13;;;1.65;;
20397;SDS011;10358;49.590;11.030;2022-11-02T14:54:17;10.65;;;1.90;;
20397;SDS011;10358;49.590;11.030;2022-11-02T14:59:44;6.88;;;1.80;;
20397;SDS011;10358;49.590;11.030;2022-11-02T15:02:21;9.93;;;2.08;;
20397;SDS011;10358;49.590;11.030;2022-11-02T15:04:53;6.68;;;1.65;;
20397;SDS011;10358;49.590;11.030;2022-11-02T15:12:40;8.07;;;1.70;;
20397;SDS011;10358;49.590;11.030;2022-11-02T15:20:24;11.30;;;1.83;;
20397;SDS011;10358;49.590;11.030;2022-11-02T15:23:13;11.50;;;1.85;;
20397;SDS011;10358;49.590;11.030;2022-11-02T15:25:38;11.48;;;2.05;;
20397;SDS011;10358;49.590;11.030;2022-11-02T15:28:06;10.88;;;1.83;;
20397;SDS011;10358;49.590;11.030;2022-11-02T15:30:37;10.70;;;1.80;;
20397;SDS011;10358;49.590;11.030;2022-11-02T15:33:13;10.23;;;1.88;;
20397;SDS011;10358;49.590;11.030;2022-11-02T15:35:53;6.00;;;1.58;;
20397;SDS011;10358;49.590;11.030;2022-11-02T15:38:20;10.10;;;1.75;;
20397;SDS011;10358;49.590;11.030;2022-11-02T15:41:05;9.88;;;1.70;;
20397;SDS011;10358;49.590;11.030;2022-11-02T15:46:44;7.32;;;1.60;;
20397;SDS011;10358;49.590;11.030;2022-11-02T15:52:37;11.45;;;2.40;;
20397;SDS011;10358;49.590;11.030;2022-11-02T15:55:30;9.15;;;2.33;;
20397;SDS011;10358;49.590;11.030;2022-11-02T15:58:27;10.98;;;2.20;;
20397;SDS011;10358;49.590;11.030;2022-11-02T16:03:43;11.38;;;2.13;;
20397;SDS011;10358;49.590;11.030;2022-11-02T16:06:10;8.68;;;1.95;;
20397;SDS011;10358;49.590;11.030;2022-11-02T16:08:36;6.90;;;1.90;;
20397;SDS011;10358;49.590;11.030;2022-11-02T16:11:12;10.88;;;1.60;;
20397;SDS011;10358;49.590;11.030;2022-11-02T16:13:41;8.10;;;1.67;;
20397;SDS011;10358;49.590;11.030;2022-11-02T16:16:11;7.28;;;1.80;;
20397;SDS011;10358;49.590;11.030;2022-11-02T16:18:39;9.93;;;2.20;;
20397;SDS011;10358;49.590;11.030;2022-11-02T16:21:08;13.70;;;2.40;;
20397;SDS011;10358;49.590;11.030;2022-11-02T16:23:37;9.93;;;2.37;;
20397;SDS011;10358;49.590;11.030;2022-11-02T16:26:17;11.60;;;2.37;;
20397;SDS011;10358;49.590;11.030;2022-11-02T16:28:47;7.87;;;2.27;;
20397;SDS011;10358;49.590;11.030;2022-11-02T16:33:54;7.23;;;1.70;;
20397;SDS011;10358;49.590;11.030;2022-11-02T16:36:28;8.57;;;2.10;;
20397;SDS011;10358;49.590;11.030;2022-11-02T16:38:57;7.53;;;1.90;;
20397;SDS011;10358;49.590;11.030;2022-11-02T16:41:28;10.30;;;2.00;;
20397;SDS011;10358;49.590;11.030;2022-11-02T16:43:56;11.33;;;2.30;;
20397;SDS011;10358;49.590;11.030;2022-11-02T16:46:38;6.43;;;1.90;;
20397;SDS011;10358;49.590;11.030;2022-11-02T16:49:11;12.43;;;2.93;;
20397;SDS011;10358;49.590;11.030;2022-11-02T16:51:37;10.43;;;2.43;;
20397;SDS011;10358;49.590;11.030;2022-11-02T16:56:54;14.00;;;4.30;;
20397;SDS011;10358;49.590;11.030;2022-11-02T16:59:24;13.57;;;4.30;;
20397;SDS011;10358;49.590;11.030;2022-11-02T17:01:50;16.13;;;4.83;;
20397;SDS011;10358;49.590;11.030;2022-11-02T17:04:24;12.37;;;3.50;;
20397;SDS011;10358;49.590;11.030;2022-11-02T17:06:54;11.33;;;3.17;;
20397;SDS011;10358;49.590;11.030;2022-11-02T17:09:27;7.83;;;2.47;;
20397;SDS011;10358;49.590;11.030;2022-11-02T17:11:57;10.37;;;2.20;;
20397;SDS011;10358;49.590;11.030;2022-11-02T17:14:28;9.90;;;1.67;;
20397;SDS011;10358;49.590;11.030;2022-11-02T17:16:59;10.33;;;1.90;;
20397;SDS011;10358;49.590;11.030;2022-11-02T17:22:15;7.33;;;1.90;;
20397;SDS011;10358;49.590;11.030;2022-11-02T17:24:47;8.43;;;1.73;;
20397;SDS011;10358;49.590;11.030;2022-11-02T17:27:26;9.40;;;1.80;;
20397;SDS011;10358;49.590;11.030;2022-11-02T17:29:56;7.33;;;2.00;;
20397;SDS011;10358;49.590;11.030;2022-11-02T17:32:22;10.93;;;2.40;;